Terminal Aerodrome Forecast
Issued by NWS Jackson, MS

Home | Current Version | Previous Version | Text Only | Print | Product List | Glossary On
Versions: 1 2 3 4 5 6 7 8 9 10 11 12 13 14 15
000
FTUS44 KJAN 260548
TAFJAN
TAF
KJAN 260548Z 2606/2706 15003KT P6SM SKC
     FM261200 10003KT P6SM SCT015
     FM261400 11005KT P6SM BKN035
     FM261800 11006KT P6SM VCTS SCT050CB
     FM270000 12004KT P6SM SCT050=

USA.gov is the U.S. government's official web portal to all federal, state and local government web resources and services.